createdAt,value
2017-11-25T00:05:55.811Z,90.98
2017-11-25T00:35:31.288Z,91.93
2017-11-25T00:38:16.825Z,89.63
2017-11-25T00:57:24.986Z,89.50
2017-11-25T00:59:55.313Z,93.33
2017-11-25T01:02:41.821Z,89.60
2017-11-25T01:18:05.839Z,87.23
2017-11-25T01:20:39.893Z,90.90
2017-11-25T01:23:09.910Z,93.93
2017-11-25T01:25:39.751Z,93.23
2017-11-25T01:28:09.047Z,89.33
2017-11-25T01:30:38.107Z,88.90
2017-11-25T01:33:13.726Z,92.93
2017-11-25T01:35:44.873Z,88.80
2017-11-25T01:38:17.708Z,92.00
2017-11-25T01:40:55.203Z,90.33
2017-11-25T01:43:29.337Z,91.37
2017-11-25T01:46:07.694Z,89.97
2017-11-25T02:24:37.282Z,91.67
2017-11-25T02:34:11.113Z,90.87
2017-11-25T02:36:40.211Z,84.33
2017-11-25T02:39:09.029Z,90.17
2017-11-25T02:41:38.746Z,85.73
2017-11-25T02:44:09.489Z,87.23
2017-11-25T02:46:43.787Z,87.77
2017-11-25T02:49:16.451Z,83.97
2017-11-25T02:51:45.872Z,83.20
2017-11-25T02:56:55.363Z,89.43
2017-11-25T02:59:31.284Z,90.73
2017-11-25T03:02:04.589Z,92.60
2017-11-25T03:04:43.978Z,87.57
2017-11-25T03:07:32.757Z,86.57
2017-11-25T03:10:02.691Z,90.17
2017-11-25T03:12:38.583Z,86.63
2017-11-25T03:15:12.692Z,88.97
2017-11-25T03:26:54.770Z,83.70
2017-11-25T03:29:26.385Z,87.97
2017-11-25T04:14:34.589Z,84.67
2017-11-25T04:19:36.472Z,92.40
2017-11-25T04:22:06.163Z,89.30
2017-11-25T04:24:34.089Z,91.33
2017-11-25T04:27:04.166Z,87.47
2017-11-25T04:29:33.928Z,87.43
2017-11-25T04:32:01.857Z,91.37
2017-11-25T04:34:29.781Z,91.97
2017-11-25T04:36:58.605Z,92.67
2017-11-25T04:39:35.586Z,86.00
2017-11-25T04:42:06.475Z,85.47
2017-11-25T04:47:11.664Z,86.37
2017-11-25T04:49:40.753Z,89.33
2017-11-25T04:55:35.857Z,97.23
2017-11-25T04:58:07.920Z,103.47
2017-11-25T05:03:30.682Z,100.13
2017-11-25T05:05:58.525Z,100.27
2017-11-25T05:08:27.230Z,102.67
2017-11-25T05:10:55.025Z,99.23
2017-11-25T05:13:22.855Z,96.47
2017-11-25T05:15:51.827Z,96.20
2017-11-25T05:18:19.714Z,95.03
2017-11-25T05:20:47.518Z,98.50
2017-11-25T05:23:15.540Z,108.67
2017-11-25T05:25:43.487Z,110.87
2017-11-25T05:28:18.574Z,114.70
2017-11-25T05:30:46.763Z,116.10
2017-11-25T05:33:14.685Z,113.10
2017-11-25T05:35:42.446Z,115.10
2017-11-25T05:38:10.317Z,114.77
2017-11-25T05:40:38.065Z,111.10
2017-11-25T05:43:05.917Z,104.17
2017-11-25T05:45:33.922Z,110.27
2017-11-25T05:48:01.741Z,107.10
2017-11-25T05:50:29.531Z,111.77
2017-11-25T05:52:57.389Z,111.37
2017-11-25T05:55:26.227Z,123.40
2017-11-25T05:57:55.092Z,122.37
2017-11-25T06:00:23.006Z,119.20
2017-11-25T06:02:51.064Z,115.17
2017-11-25T06:05:18.884Z,111.03
2017-11-25T06:07:48.535Z,110.67
2017-11-25T06:10:16.481Z,106.53
2017-11-25T06:12:44.385Z,112.37
2017-11-25T06:15:13.133Z,111.50
2017-11-25T06:17:41.083Z,112.87
2017-11-25T06:20:09.039Z,123.50
2017-11-25T06:22:38.012Z,117.50
2017-11-25T06:25:05.770Z,98.00
2017-11-25T06:27:33.567Z,106.13
2017-11-25T06:30:02.140Z,104.77
2017-11-25T06:32:29.912Z,109.27
2017-11-25T06:34:57.780Z,109.87
2017-11-25T06:37:25.641Z,107.20
2017-11-25T06:39:54.270Z,106.30
2017-11-25T06:42:22.076Z,113.63
2017-11-25T06:44:49.983Z,109.97
2017-11-25T06:47:17.871Z,118.07
2017-11-25T06:49:45.695Z,104.70
2017-11-25T06:52:13.590Z,92.37
2017-11-25T06:54:41.304Z,108.67
2017-11-25T06:57:09.026Z,115.10
2017-11-25T06:59:37.642Z,115.87
2017-11-25T07:02:05.356Z,112.10
2017-11-25T07:04:33.143Z,125.80
2017-11-25T07:07:00.879Z,116.27
2017-11-25T07:09:28.651Z,119.83
2017-11-25T07:11:56.412Z,126.30
2017-11-25T07:14:25.317Z,125.97
2017-11-25T07:16:53.103Z,118.30
2017-11-25T07:19:20.931Z,127.87
2017-11-25T07:21:48.834Z,128.47
2017-11-25T07:24:16.653Z,122.70
2017-11-25T07:26:44.395Z,123.70
2017-11-25T07:29:12.195Z,119.00
2017-11-25T07:31:39.999Z,118.77
2017-11-25T07:34:07.776Z,126.30
2017-11-25T07:36:35.643Z,124.10
2017-11-25T07:39:03.450Z,124.50
2017-11-25T07:41:31.228Z,121.37
2017-11-25T07:43:59.023Z,119.40
2017-11-25T07:46:26.845Z,126.50
2017-11-25T07:48:54.648Z,121.20
2017-11-25T07:51:22.556Z,122.33
2017-11-25T07:53:51.118Z,117.90
2017-11-25T07:56:19.854Z,123.83
2017-11-25T07:58:47.583Z,120.00
2017-11-25T08:01:15.412Z,113.67
2017-11-25T08:03:43.212Z,114.60
2017-11-25T08:06:11.065Z,108.90
2017-11-25T08:08:38.810Z,94.63
2017-11-25T08:11:07.002Z,112.07
2017-11-25T08:13:34.908Z,114.17
2017-11-25T08:16:02.811Z,117.53
2017-11-25T08:18:30.776Z,102.87
2017-11-25T08:20:58.687Z,101.27
2017-11-25T08:23:26.534Z,108.57
2017-11-25T08:25:54.497Z,116.53
2017-11-25T08:28:22.389Z,118.17
2017-11-25T08:30:50.250Z,117.90
2017-11-25T08:33:18.208Z,113.50
2017-11-25T08:35:46.545Z,110.57
2017-11-25T08:38:14.505Z,111.47
2017-11-25T08:40:43.132Z,109.30
2017-11-25T08:43:12.802Z,107.63
2017-11-25T08:45:42.224Z,102.83
2017-11-25T08:48:10.873Z,116.47
2017-11-25T08:50:38.741Z,110.87
2017-11-25T08:53:06.532Z,109.60
2017-11-25T08:55:34.432Z,107.47
2017-11-25T08:58:02.329Z,108.03
2017-11-25T09:00:30.225Z,97.60
2017-11-25T09:02:58.245Z,105.93
2017-11-25T09:05:26.147Z,94.20
2017-11-25T09:07:54.112Z,110.37
2017-11-25T09:10:21.938Z,108.43
2017-11-25T09:12:49.820Z,114.30
2017-11-25T09:15:17.676Z,105.03
2017-11-25T09:17:46.422Z,110.77
2017-11-25T09:20:14.342Z,101.27
2017-11-25T09:22:42.306Z,101.23
2017-11-25T09:25:11.275Z,107.97
2017-11-25T09:27:39.102Z,89.13
2017-11-25T09:30:06.967Z,103.83
2017-11-25T09:32:34.799Z,104.93
2017-11-25T09:35:06.379Z,103.40
2017-11-25T09:37:34.239Z,99.90
2017-11-25T09:40:02.109Z,105.17
2017-11-25T09:42:31.022Z,102.57
2017-11-25T09:45:00.647Z,100.43
2017-11-25T09:47:28.489Z,105.20
2017-11-25T09:49:56.304Z,102.23
2017-11-25T09:52:24.219Z,83.43
2017-11-25T09:54:52.781Z,96.70
2017-11-25T09:57:20.644Z,99.57
2017-11-25T09:59:48.422Z,94.50
2017-11-25T10:02:16.219Z,88.93
2017-11-25T10:04:44.282Z,94.87
2017-11-25T10:07:12.127Z,93.57
2017-11-25T10:09:40.001Z,81.97
2017-11-25T10:12:09.155Z,87.90
2017-11-25T10:14:36.946Z,92.43
2017-11-25T10:17:04.706Z,81.90
2017-11-25T10:19:32.511Z,92.63
2017-11-25T10:22:01.094Z,87.47
2017-11-25T10:24:30.227Z,80.30
2017-11-25T10:26:58.038Z,89.33
2017-11-25T10:29:25.787Z,87.00
2017-11-25T10:31:53.527Z,84.83
2017-11-25T10:34:21.335Z,85.57
2017-11-25T10:36:50.085Z,84.50
2017-11-25T10:39:17.966Z,84.93
2017-11-25T10:41:45.751Z,86.40
2017-11-25T10:44:13.637Z,84.07
2017-11-25T10:46:41.446Z,85.63
2017-11-25T10:49:09.417Z,83.53
2017-11-25T10:51:37.211Z,72.73
2017-11-25T10:54:05.656Z,80.70
2017-11-25T10:56:35.258Z,84.20
2017-11-25T10:59:03.122Z,85.07
2017-11-25T11:01:31.665Z,88.43
2017-11-25T11:03:59.501Z,85.90
2017-11-25T11:06:27.298Z,91.40
2017-11-25T11:08:55.081Z,87.10
2017-11-25T11:11:29.687Z,91.87
2017-11-25T11:13:57.649Z,90.67
2017-11-25T11:16:31.441Z,91.73
2017-11-25T11:19:02.269Z,81.10
2017-11-25T11:21:30.129Z,76.73
2017-11-25T11:23:58.069Z,84.63
2017-11-25T11:26:25.951Z,79.30
2017-11-25T11:28:54.589Z,82.27
2017-11-25T11:46:56.760Z,75.37
2017-11-25T11:49:26.065Z,71.77
2017-11-25T11:51:54.201Z,69.63
2017-11-25T11:54:23.452Z,77.20
2017-11-25T11:56:51.376Z,68.27
2017-11-25T11:59:26.703Z,72.30
2017-11-25T12:01:54.737Z,69.47
2017-11-25T12:04:22.701Z,68.00
2017-11-25T12:06:50.590Z,64.43
2017-11-25T12:09:18.524Z,55.33
2017-11-25T12:11:46.515Z,55.57
2017-11-25T12:14:16.890Z,52.57
2017-11-25T12:16:45.552Z,46.80
2017-11-25T12:19:14.669Z,42.87
2017-11-25T12:21:42.628Z,40.93
2017-11-25T12:24:10.522Z,36.10
2017-11-25T12:26:45.336Z,33.60
2017-11-25T12:29:14.292Z,32.73
2017-11-25T12:31:42.338Z,32.93
2017-11-25T12:34:10.411Z,24.47
2017-11-25T12:36:39.597Z,22.37
2017-11-25T12:39:08.669Z,20.77
2017-11-25T12:41:36.776Z,18.43
2017-11-25T12:44:09.248Z,18.63
2017-11-25T13:00:47.781Z,11.80
2017-11-25T13:03:15.744Z,7.00
2017-11-25T13:05:43.571Z,6.77
2017-11-25T13:08:11.425Z,5.00
2017-11-25T13:10:39.153Z,4.40
2017-11-25T13:13:06.981Z,6.10
2017-11-25T13:15:34.854Z,4.17
2017-11-25T13:18:02.693Z,4.80
2017-11-25T13:20:30.589Z,4.57
2017-11-25T13:22:59.317Z,4.80
2017-11-25T13:25:28.370Z,4.23
2017-11-25T13:27:56.197Z,4.83
2017-11-25T13:30:25.549Z,6.77
2017-11-25T13:32:54.819Z,4.23
2017-11-25T13:35:22.570Z,4.10
2017-11-25T13:37:50.344Z,3.87
2017-11-25T13:40:19.169Z,4.77
2017-11-25T13:42:47.071Z,4.33
2017-11-25T13:45:15.088Z,5.17
2017-11-25T13:47:44.134Z,4.97
2017-11-25T13:50:12.821Z,4.87
2017-11-25T13:52:40.847Z,7.57
2017-11-25T13:55:15.879Z,13.10
2017-11-25T13:57:44.009Z,24.73
2017-11-25T14:00:15.920Z,49.37
2017-11-25T14:16:21.589Z,86.37
2017-11-25T14:22:23.472Z,88.13
2017-11-25T14:24:59.609Z,90.37
2017-11-25T14:27:46.758Z,87.90
2017-11-25T14:30:45.650Z,91.47
2017-11-25T14:33:14.105Z,87.87
2017-11-25T14:35:49.980Z,91.50
2017-11-25T14:45:26.057Z,87.93
2017-11-25T14:47:55.064Z,83.13
2017-11-25T14:50:27.623Z,87.37
2017-11-25T14:59:26.126Z,103.50
2017-11-25T15:02:00.848Z,90.83
2017-11-25T15:04:29.771Z,92.77
2017-11-25T15:07:05.184Z,90.83
2017-11-25T15:09:33.733Z,91.87
2017-11-25T15:12:01.979Z,86.90
2017-11-25T15:14:30.029Z,100.07
2017-11-25T15:16:58.035Z,99.07
2017-11-25T15:19:34.743Z,93.30
2017-11-25T15:22:05.039Z,96.53
2017-11-25T15:24:32.924Z,101.00
2017-11-25T15:27:04.222Z,94.63
2017-11-25T15:29:32.054Z,95.47
2017-11-25T15:31:59.970Z,97.37
2017-11-25T15:34:27.803Z,102.27
2017-11-25T15:36:55.623Z,106.73
2017-11-25T15:39:23.843Z,100.17
2017-11-25T15:41:52.589Z,92.97
2017-11-25T15:44:20.453Z,101.93
2017-11-25T15:46:49.060Z,98.97
2017-11-25T15:49:16.974Z,105.20
2017-11-25T15:51:44.859Z,105.60
2017-11-25T15:54:12.926Z,104.37
2017-11-25T15:56:40.955Z,101.33
2017-11-25T15:59:09.729Z,101.10
2017-11-25T16:15:48.554Z,103.33
2017-11-25T16:18:16.769Z,114.67
2017-11-25T16:20:49.516Z,112.80
2017-11-25T16:23:17.411Z,104.63
2017-11-25T16:25:46.300Z,104.30
2017-11-25T16:28:15.443Z,125.70
2017-11-25T16:30:44.775Z,118.27
2017-11-25T16:33:12.663Z,119.67
2017-11-25T16:35:43.980Z,110.30
2017-11-25T16:38:11.926Z,115.00
2017-11-25T16:40:39.910Z,117.80
2017-11-25T16:43:07.783Z,122.30
2017-11-25T16:45:40.414Z,118.60
2017-11-25T17:28:06.280Z,121.03
2017-11-25T17:30:34.952Z,128.13
2017-11-25T17:35:50.177Z,117.00
2017-11-25T17:38:18.135Z,104.27
2017-11-25T17:40:45.986Z,108.13
2017-11-25T17:43:14.665Z,104.73
2017-11-25T17:45:43.351Z,102.67
2017-11-25T17:48:27.715Z,101.03
2017-11-25T17:50:55.522Z,101.70
2017-11-25T17:53:23.432Z,99.17
2017-11-25T17:55:51.308Z,101.97
2017-11-25T17:58:19.090Z,94.17
2017-11-25T18:00:47.628Z,97.00
2017-11-25T18:03:16.181Z,93.93
2017-11-25T18:05:43.944Z,102.17
2017-11-25T18:08:11.701Z,97.63
2017-11-25T18:10:40.273Z,99.27
2017-11-25T18:13:08.119Z,95.80
2017-11-25T18:15:35.929Z,93.17
2017-11-25T18:18:04.509Z,98.10
2017-11-25T18:20:32.311Z,94.80
2017-11-25T18:23:00.111Z,96.20
2017-11-25T18:25:27.876Z,91.60
2017-11-25T18:27:55.705Z,96.23
2017-11-25T18:30:23.484Z,93.60
2017-11-25T18:32:51.297Z,85.00
2017-11-25T18:35:19.144Z,100.10
2017-11-25T18:37:46.921Z,97.50
2017-11-25T18:40:14.848Z,92.13
2017-11-25T18:42:42.740Z,93.30
2017-11-25T18:45:10.553Z,100.60
2017-11-25T18:47:38.460Z,99.50
2017-11-25T18:50:06.294Z,94.43
2017-11-25T18:52:34.044Z,90.43
2017-11-25T18:55:01.959Z,100.53
2017-11-25T18:57:29.749Z,104.87
2017-11-25T18:59:57.552Z,102.20
2017-11-25T19:02:27.011Z,104.27
2017-11-25T19:04:54.865Z,104.60
2017-11-25T19:07:22.707Z,110.53
2017-11-25T19:09:51.462Z,104.37
2017-11-25T19:12:19.245Z,98.17
2017-11-25T19:14:47.103Z,89.97
2017-11-25T19:17:14.963Z,101.67
2017-11-25T19:19:42.773Z,99.00
2017-11-25T19:22:10.620Z,96.50
2017-11-25T19:24:38.461Z,94.80
2017-11-25T19:27:06.228Z,95.43
2017-11-25T19:29:34.064Z,88.80
2017-11-25T19:32:01.857Z,89.13
2017-11-25T19:34:29.743Z,88.07
2017-11-25T19:36:57.509Z,90.67
2017-11-25T19:39:26.242Z,97.30
2017-11-25T19:41:54.076Z,88.10
2017-11-25T19:44:21.919Z,102.60
2017-11-25T19:46:49.909Z,93.13
2017-11-25T19:49:17.751Z,99.63
2017-11-25T19:51:45.574Z,101.93
2017-11-25T19:54:14.302Z,103.17
2017-11-25T19:56:42.134Z,102.83
2017-11-25T19:59:10.727Z,94.50
2017-11-25T20:01:38.633Z,93.17
2017-11-25T20:04:06.516Z,94.77
2017-11-25T20:06:34.436Z,98.43
2017-11-25T20:09:03.024Z,97.40
2017-11-25T20:11:31.629Z,90.67
2017-11-25T20:13:59.578Z,89.80
2017-11-25T20:16:27.437Z,99.87
2017-11-25T20:18:55.268Z,96.30
2017-11-25T20:21:23.160Z,98.40
2017-11-25T20:23:51.783Z,96.97
2017-11-25T20:26:19.702Z,89.40
2017-11-25T20:28:47.703Z,94.00
2017-11-25T20:31:15.574Z,98.47
2017-11-25T20:33:43.490Z,90.73
2017-11-25T20:36:11.329Z,103.30
2017-11-25T20:38:39.119Z,99.93
2017-11-25T20:41:06.942Z,95.60
2017-11-25T20:43:34.751Z,93.77
2017-11-25T20:46:02.568Z,98.57
2017-11-25T20:48:30.333Z,98.70
2017-11-25T20:50:59.044Z,87.17
2017-11-25T20:53:26.867Z,82.63
2017-11-25T20:55:54.816Z,88.70
2017-11-25T20:58:22.723Z,83.40
2017-11-25T21:00:50.554Z,78.80
2017-11-25T21:03:18.419Z,71.40
2017-11-25T21:05:46.229Z,75.73
2017-11-25T21:08:14.030Z,81.03
2017-11-25T21:10:41.785Z,79.40
2017-11-25T21:13:10.402Z,76.30
2017-11-25T21:15:39.437Z,78.73
2017-11-25T21:18:08.026Z,71.00
2017-11-25T21:20:35.851Z,72.83
2017-11-25T21:23:03.669Z,70.93
2017-11-25T21:25:31.462Z,70.93
2017-11-25T21:27:59.242Z,70.90
2017-11-25T21:30:27.825Z,67.50
2017-11-25T21:32:59.329Z,63.47
2017-11-25T21:35:27.172Z,63.00
2017-11-25T21:37:54.959Z,64.10
2017-11-25T21:40:22.801Z,60.90
2017-11-25T21:42:50.600Z,64.17
2017-11-25T21:45:19.322Z,63.33
2017-11-25T21:47:47.300Z,62.17
2017-11-25T21:50:15.126Z,60.73
2017-11-25T21:52:42.903Z,60.17
2017-11-25T21:55:10.703Z,60.67
2017-11-25T21:57:39.300Z,59.67
2017-11-25T22:00:07.224Z,59.47
2017-11-25T22:02:35.037Z,62.40
2017-11-25T22:05:02.986Z,60.53
2017-11-25T22:07:30.896Z,57.70
2017-11-25T22:09:59.928Z,56.60
2017-11-25T22:12:27.843Z,62.60
2017-11-25T22:14:55.697Z,62.53
2017-11-25T22:17:24.491Z,61.37
2017-11-25T22:19:52.427Z,59.77
2017-11-25T22:22:20.372Z,59.90
2017-11-25T22:24:58.919Z,60.17
2017-11-25T22:27:28.086Z,64.17
2017-11-25T22:29:56.184Z,57.47
2017-11-25T22:32:24.158Z,54.57
2017-11-25T22:34:52.145Z,60.00
2017-11-25T22:37:20.016Z,62.90
2017-11-25T22:39:47.993Z,61.30
2017-11-25T22:42:15.924Z,61.50
2017-11-25T22:55:18.631Z,55.23
2017-11-25T22:57:47.254Z,50.00
2017-11-25T23:00:15.096Z,48.47
2017-11-25T23:02:42.987Z,47.43
2017-11-25T23:05:10.799Z,48.97
2017-11-25T23:07:38.627Z,49.43
2017-11-25T23:10:06.434Z,46.07
2017-11-25T23:12:34.828Z,45.70
2017-11-25T23:15:02.593Z,47.80
2017-11-25T23:17:30.414Z,46.17
2017-11-25T23:19:58.255Z,49.80
2017-11-25T23:22:26.005Z,50.50
2017-11-25T23:24:53.861Z,46.73
2017-11-25T23:27:21.702Z,45.87
2017-11-25T23:29:49.445Z,43.60
2017-11-25T23:32:17.317Z,43.77
2017-11-25T23:34:45.139Z,44.33
2017-11-25T23:37:12.998Z,42.30
2017-11-25T23:39:40.823Z,47.40
2017-11-25T23:42:08.585Z,43.87
2017-11-25T23:44:36.456Z,41.43
2017-11-25T23:47:04.398Z,43.10
2017-11-25T23:49:32.960Z,44.10
2017-11-25T23:52:00.800Z,45.00
2017-11-25T23:54:28.620Z,46.80
2017-11-25T23:56:57.146Z,44.03
2017-11-25T23:59:24.928Z,45.73
